createdAt,value
2019-02-16T00:02:23.464Z,31.10
2019-02-16T00:04:53.804Z,31.25
2019-02-16T00:07:24.186Z,31.93
2019-02-16T00:09:55.645Z,59.58
2019-02-16T00:12:25.969Z,37.20
2019-02-16T00:14:56.356Z,53.68
2019-02-16T00:17:26.722Z,32.63
2019-02-16T00:19:57.070Z,32.17
2019-02-16T00:22:27.407Z,47.17
2019-02-16T00:24:57.838Z,33.73
2019-02-16T00:27:28.165Z,44.48
2019-02-16T00:29:58.576Z,31.65
2019-02-16T00:32:28.861Z,29.60
2019-02-16T00:34:59.221Z,35.13
2019-02-16T00:37:29.589Z,30.00
2019-02-16T00:40:01.154Z,36.55
2019-02-16T00:42:31.543Z,41.15
2019-02-16T00:45:01.886Z,28.90
2019-02-16T00:47:32.239Z,43.20
2019-02-16T00:50:02.583Z,34.38
2019-02-16T00:52:32.993Z,30.08
2019-02-16T00:55:03.374Z,25.27
2019-02-16T00:57:33.748Z,27.00
2019-02-16T01:00:04.362Z,41.83
2019-02-16T01:02:35.005Z,30.65
2019-02-16T01:05:06.058Z,29.57
2019-02-16T01:07:36.406Z,30.20
2019-02-16T01:10:08.974Z,23.40
2019-02-16T01:12:39.312Z,28.57
2019-02-16T01:15:10.646Z,29.05
2019-02-16T01:17:40.996Z,22.87
2019-02-16T01:20:12.385Z,29.07
2019-02-16T01:22:42.725Z,45.40
2019-02-16T01:25:13.061Z,19.30
2019-02-16T01:27:43.389Z,36.42
2019-02-16T01:30:13.843Z,27.65
2019-02-16T01:32:44.140Z,40.90
2019-02-16T01:35:14.520Z,23.40
2019-02-16T01:37:44.852Z,32.25
2019-02-16T01:40:15.297Z,25.97
2019-02-16T01:42:45.669Z,18.17
2019-02-16T01:45:16.032Z,22.70
2019-02-16T01:47:46.383Z,21.07
2019-02-16T01:50:16.737Z,25.77
2019-02-16T01:52:47.082Z,35.63
2019-02-16T01:55:17.435Z,22.52
2019-02-16T01:57:47.775Z,22.80
2019-02-16T02:00:18.156Z,21.20
2019-02-16T02:02:48.460Z,30.50
2019-02-16T02:05:19.026Z,20.43
2019-02-16T02:07:49.346Z,31.07
2019-02-16T02:10:20.559Z,23.50
2019-02-16T02:12:50.921Z,38.63
2019-02-16T02:15:21.250Z,37.45
2019-02-16T02:17:52.626Z,21.62
2019-02-16T02:20:24.100Z,24.65
2019-02-16T02:22:54.439Z,19.10
2019-02-16T02:25:25.165Z,34.20
2019-02-16T02:27:55.464Z,16.95
2019-02-16T02:30:25.860Z,17.55
2019-02-16T02:32:56.170Z,17.00
2019-02-16T02:35:26.512Z,18.50
2019-02-16T02:37:56.869Z,24.37
2019-02-16T02:40:28.042Z,19.62
2019-02-16T02:42:58.420Z,26.37
2019-02-16T02:45:28.884Z,33.20
2019-02-16T02:47:59.212Z,21.77
2019-02-16T02:50:29.566Z,18.65
2019-02-16T02:53:00.928Z,18.40
2019-02-16T02:55:31.281Z,42.65
2019-02-16T02:58:01.654Z,23.25
2019-02-16T03:00:32.076Z,21.90
2019-02-16T03:03:02.420Z,20.37
2019-02-16T03:05:33.831Z,29.07
2019-02-16T03:08:05.264Z,16.07
2019-02-16T03:10:37.083Z,15.53
2019-02-16T03:13:07.609Z,15.88
2019-02-16T03:15:37.913Z,15.93
2019-02-16T03:18:09.637Z,16.23
2019-02-16T03:20:39.957Z,13.20
2019-02-16T03:23:18.071Z,16.62
2019-02-16T03:26:20.552Z,24.30
2019-02-16T03:29:24.985Z,13.40
2019-02-16T03:32:29.100Z,23.18
2019-02-16T03:35:38.554Z,17.23
2019-02-16T03:38:31.955Z,16.90
2019-02-16T03:41:03.346Z,18.80
2019-02-16T03:43:33.689Z,16.67
2019-02-16T03:46:04.180Z,11.93
2019-02-16T03:48:34.602Z,17.80
2019-02-16T03:51:04.915Z,13.32
2019-02-16T03:53:35.248Z,21.42
2019-02-16T03:56:05.599Z,15.30
2019-02-16T03:58:35.921Z,14.03
2019-02-16T04:01:06.252Z,19.75
2019-02-16T04:03:37.671Z,13.68
2019-02-16T04:06:08.017Z,12.40
2019-02-16T04:08:38.314Z,14.73
2019-02-16T04:11:08.640Z,32.80
2019-02-16T04:13:38.939Z,21.42
2019-02-16T04:16:09.283Z,24.12
2019-02-16T04:18:39.591Z,20.62
2019-02-16T04:21:10.000Z,14.63
2019-02-16T04:23:40.338Z,14.85
2019-02-16T04:26:10.718Z,20.17
2019-02-16T04:28:41.061Z,12.75
2019-02-16T04:31:11.390Z,16.12
2019-02-16T04:33:41.686Z,7.25
2019-02-16T04:36:12.036Z,23.15
2019-02-16T04:38:42.402Z,13.15
2019-02-16T04:41:12.822Z,12.55
2019-02-16T04:43:43.219Z,13.95
2019-02-16T04:46:13.568Z,15.65
2019-02-16T04:48:43.963Z,12.33
2019-02-16T04:51:14.272Z,10.25
2019-02-16T04:53:44.612Z,14.43
2019-02-16T04:56:14.907Z,8.90
2019-02-16T04:58:45.237Z,13.10
2019-02-16T05:01:15.618Z,11.00
2019-02-16T05:03:45.999Z,13.58
2019-02-16T05:06:16.363Z,13.18
2019-02-16T05:08:46.644Z,11.22
2019-02-16T05:11:18.919Z,12.73
2019-02-16T05:13:49.393Z,19.90
2019-02-16T05:16:19.713Z,20.25
2019-02-16T05:18:50.011Z,10.00
2019-02-16T05:21:20.333Z,12.13
2019-02-16T05:23:50.678Z,8.68
2019-02-16T05:26:21.132Z,12.60
2019-02-16T05:28:51.449Z,11.33
2019-02-16T05:31:21.797Z,19.65
2019-02-16T05:33:52.140Z,10.80
2019-02-16T05:36:22.481Z,14.93
2019-02-16T05:38:52.842Z,10.43
2019-02-16T05:41:23.832Z,11.35
2019-02-16T05:43:54.177Z,11.48
2019-02-16T05:46:24.796Z,8.93
2019-02-16T05:48:55.222Z,15.10
2019-02-16T05:51:25.626Z,12.93
2019-02-16T05:53:56.002Z,9.50
2019-02-16T05:56:26.334Z,10.98
2019-02-16T05:58:56.703Z,13.85
2019-02-16T06:01:27.001Z,9.75
2019-02-16T06:03:57.468Z,24.85
2019-02-16T06:06:27.808Z,11.88
2019-02-16T06:08:58.136Z,10.10
2019-02-16T06:11:28.554Z,12.70
2019-02-16T06:13:59.902Z,10.03
2019-02-16T06:16:30.256Z,10.50
2019-02-16T06:19:00.601Z,7.62
2019-02-16T06:21:30.939Z,13.55
2019-02-16T06:24:01.271Z,9.90
2019-02-16T06:26:31.606Z,11.15
2019-02-16T06:29:01.987Z,17.90
2019-02-16T06:31:32.347Z,25.27
2019-02-16T06:34:02.668Z,8.63
2019-02-16T06:36:39.179Z,17.32
2019-02-16T06:39:09.507Z,14.65
2019-02-16T06:41:40.641Z,16.15
2019-02-16T06:44:11.334Z,16.00
2019-02-16T06:46:41.719Z,20.82
2019-02-16T06:49:12.113Z,12.73
2019-02-16T06:51:42.552Z,11.33
2019-02-16T06:54:12.894Z,15.13
2019-02-16T06:57:00.548Z,13.62
2019-02-16T06:59:30.941Z,17.52
2019-02-16T07:02:01.293Z,28.25
2019-02-16T07:04:31.594Z,18.17
2019-02-16T07:07:01.917Z,17.57
2019-02-16T07:09:32.269Z,25.00
2019-02-16T07:12:03.806Z,17.02
2019-02-16T07:14:34.185Z,21.93
2019-02-16T07:17:22.393Z,14.68
2019-02-16T07:19:55.628Z,17.15
2019-02-16T07:22:26.284Z,21.30
2019-02-16T07:24:56.664Z,24.92
2019-02-16T07:27:27.021Z,18.27
2019-02-16T07:29:57.360Z,12.33
2019-02-16T07:32:27.735Z,9.73
2019-02-16T07:34:58.033Z,16.48
2019-02-16T07:37:28.426Z,8.48
2019-02-16T07:39:59.838Z,8.13
2019-02-16T07:42:48.703Z,13.00
2019-02-16T07:45:51.445Z,11.97
2019-02-16T07:48:38.318Z,11.22
2019-02-16T07:51:24.617Z,8.70
2019-02-16T07:54:17.265Z,10.75
2019-02-16T07:57:00.708Z,15.35
2019-02-16T07:59:50.073Z,11.53
2019-02-16T08:02:42.169Z,13.10
2019-02-16T08:05:22.439Z,11.12
2019-02-16T08:08:04.478Z,15.23
2019-02-16T08:10:56.741Z,13.13
2019-02-16T08:13:48.605Z,9.85
2019-02-16T08:16:36.839Z,13.10
2019-02-16T08:19:32.277Z,12.47
2019-02-16T08:22:30.741Z,13.10
2019-02-16T08:25:25.559Z,15.25
2019-02-16T08:28:06.173Z,10.00
2019-02-16T08:30:54.043Z,24.00
2019-02-16T08:33:43.371Z,10.68
2019-02-16T08:36:26.889Z,12.90
2019-02-16T08:39:20.760Z,11.57
2019-02-16T08:41:57.814Z,21.95
2019-02-16T08:44:47.720Z,12.10
2019-02-16T08:47:33.212Z,10.98
2019-02-16T08:50:11.585Z,10.98
2019-02-16T08:53:00.877Z,16.52
2019-02-16T08:55:47.115Z,12.80
2019-02-16T08:58:51.572Z,14.53
2019-02-16T09:01:37.598Z,24.10
2019-02-16T09:04:32.589Z,16.23
2019-02-16T09:07:22.085Z,25.37
2019-02-16T09:10:08.044Z,12.85
2019-02-16T09:13:00.417Z,13.13
2019-02-16T09:15:52.452Z,12.30
2019-02-16T09:18:37.072Z,20.12
2019-02-16T09:21:23.807Z,16.60
2019-02-16T09:24:22.269Z,11.60
2019-02-16T09:27:04.453Z,8.73
2019-02-16T09:30:12.212Z,11.85
2019-02-16T09:33:31.622Z,12.68
2019-02-16T09:36:19.598Z,16.50
2019-02-16T09:39:10.408Z,19.85
2019-02-16T09:41:56.231Z,11.65
2019-02-16T09:44:34.813Z,14.70
2019-02-16T09:47:25.215Z,19.27
2019-02-16T09:50:28.234Z,11.93
2019-02-16T09:53:30.061Z,14.33
2019-02-16T09:56:09.625Z,10.80
2019-02-16T09:59:01.667Z,13.90
2019-02-16T10:01:49.816Z,26.65
2019-02-16T10:04:29.016Z,22.62
2019-02-16T10:07:17.404Z,13.25
2019-02-16T10:10:09.691Z,14.40
2019-02-16T10:13:02.325Z,20.35
2019-02-16T10:15:57.735Z,14.70
2019-02-16T10:18:42.716Z,17.75
2019-02-16T10:21:44.120Z,13.08
2019-02-16T10:24:32.365Z,14.80
2019-02-16T10:27:20.670Z,11.73
2019-02-16T10:30:13.019Z,13.43
2019-02-16T10:32:54.049Z,13.38
2019-02-16T10:35:30.225Z,13.45
2019-02-16T10:38:28.453Z,13.55
2019-02-16T10:41:27.057Z,11.40
2019-02-16T10:44:14.760Z,15.00
2019-02-16T10:47:16.129Z,16.70
2019-02-16T10:50:00.250Z,29.50
2019-02-16T10:52:35.977Z,19.73
2019-02-16T10:55:17.191Z,19.87
2019-02-16T10:57:59.791Z,15.72
2019-02-16T11:00:48.003Z,22.27
2019-02-16T11:03:36.213Z,19.42
2019-02-16T11:06:16.102Z,19.55
2019-02-16T11:09:11.411Z,29.80
2019-02-16T11:11:59.447Z,28.90
2019-02-16T11:14:47.427Z,24.85
2019-02-16T11:17:35.580Z,21.60
2019-02-16T11:20:25.241Z,25.05
2019-02-16T11:23:20.853Z,21.10
2019-02-16T11:26:00.197Z,40.25
2019-02-16T11:28:47.519Z,22.48
2019-02-16T11:31:35.777Z,31.55
2019-02-16T11:34:23.867Z,24.75
2019-02-16T11:37:15.973Z,24.63
2019-02-16T11:40:00.275Z,35.75
2019-02-16T11:42:48.091Z,39.23
2019-02-16T11:45:37.396Z,24.18
2019-02-16T11:48:24.595Z,26.57
2019-02-16T11:51:12.465Z,26.23
2019-02-16T11:54:02.233Z,33.83
2019-02-16T11:56:54.353Z,26.45
2019-02-16T11:59:52.645Z,27.13
2019-02-16T12:02:39.535Z,25.52
2019-02-16T12:05:14.503Z,37.35
2019-02-16T12:08:02.856Z,22.30
2019-02-16T12:10:43.705Z,28.32
2019-02-16T12:13:23.249Z,40.92
2019-02-16T12:16:15.537Z,30.97
2019-02-16T12:19:07.953Z,40.50
2019-02-16T12:21:57.114Z,22.42
2019-02-16T12:24:35.206Z,31.20
2019-02-16T12:27:12.719Z,33.48
2019-02-16T12:29:48.683Z,22.55
2019-02-16T12:32:36.831Z,27.58
2019-02-16T12:35:31.213Z,23.00
2019-02-16T12:38:21.777Z,34.55
2019-02-16T12:41:09.671Z,21.50
2019-02-16T12:44:01.909Z,37.38
2019-02-16T12:46:47.038Z,26.68
2019-02-16T12:49:39.400Z,20.52
2019-02-16T12:52:29.385Z,19.27
2019-02-16T12:55:14.606Z,32.50
2019-02-16T12:57:50.037Z,20.95
2019-02-16T13:00:45.256Z,29.75
2019-02-16T13:03:31.383Z,25.02
2019-02-16T13:06:24.043Z,25.48
2019-02-16T13:09:07.477Z,21.73
2019-02-16T13:11:55.706Z,20.55
2019-02-16T13:14:44.644Z,23.57
2019-02-16T13:17:30.155Z,23.87
2019-02-16T13:20:23.410Z,22.10
2019-02-16T13:23:07.139Z,24.25
2019-02-16T13:25:42.700Z,28.62
2019-02-16T13:28:34.430Z,23.57
2019-02-16T13:31:11.691Z,24.10
2019-02-16T13:33:52.977Z,20.68
2019-02-16T13:36:41.169Z,25.33
2019-02-16T13:39:29.415Z,19.30
2019-02-16T13:42:05.269Z,19.77
2019-02-16T13:44:49.599Z,18.77
2019-02-16T13:47:26.469Z,17.97
2019-02-16T13:50:30.793Z,26.67
2019-02-16T13:53:24.712Z,19.20
2019-02-16T13:56:29.447Z,19.63
2019-02-16T13:59:12.201Z,18.87
2019-02-16T14:02:01.508Z,14.23
2019-02-16T14:04:59.801Z,24.23
2019-02-16T14:08:01.453Z,18.20
2019-02-16T14:10:38.883Z,18.00
2019-02-16T14:13:31.010Z,19.67
2019-02-16T14:16:06.273Z,22.17
2019-02-16T14:18:36.632Z,21.83
2019-02-16T14:21:07.029Z,19.87
2019-02-16T14:23:37.909Z,17.97
2019-02-16T14:26:09.118Z,19.83
2019-02-16T14:28:39.509Z,18.92
2019-02-16T14:31:09.961Z,23.43
2019-02-16T14:33:40.316Z,21.47
2019-02-16T14:36:11.053Z,28.17
2019-02-16T14:38:53.286Z,29.67
2019-02-16T14:41:23.656Z,22.60
2019-02-16T14:43:54.062Z,18.20
2019-02-16T14:46:24.522Z,18.02
2019-02-16T14:48:54.897Z,22.60
2019-02-16T14:51:25.281Z,17.82
2019-02-16T14:53:56.694Z,20.97
2019-02-16T14:56:27.095Z,17.75
2019-02-16T14:58:57.453Z,21.40
2019-02-16T15:01:27.859Z,17.30
2019-02-16T15:03:58.220Z,15.08
2019-02-16T15:06:28.597Z,18.48
2019-02-16T15:08:59.444Z,18.10
2019-02-16T15:11:31.320Z,22.22
2019-02-16T15:14:01.696Z,21.93
2019-02-16T15:16:32.104Z,20.15
2019-02-16T15:19:02.453Z,17.25
2019-02-16T15:21:32.807Z,18.30
2019-02-16T15:24:03.677Z,20.25
2019-02-16T15:26:34.461Z,25.43
2019-02-16T15:29:04.798Z,22.98
2019-02-16T15:31:35.165Z,34.85
2019-02-16T15:34:05.492Z,22.85
2019-02-16T15:36:35.911Z,22.93
2019-02-16T15:39:07.176Z,19.05
2019-02-16T15:41:37.836Z,21.42
2019-02-16T15:44:08.269Z,24.63
2019-02-16T15:46:38.649Z,24.60
2019-02-16T15:49:08.994Z,18.65
2019-02-16T15:51:39.373Z,21.68
2019-02-16T15:54:09.786Z,20.65
2019-02-16T15:56:40.125Z,24.10
2019-02-16T15:59:10.913Z,24.40
2019-02-16T16:01:41.310Z,24.27
2019-02-16T16:04:11.654Z,24.50
2019-02-16T16:06:42.201Z,25.23
2019-02-16T16:09:24.002Z,26.95
2019-02-16T16:12:13.345Z,26.45
2019-02-16T16:14:57.804Z,34.03
2019-02-16T16:17:37.986Z,27.48
2019-02-16T16:20:17.901Z,26.05
2019-02-16T16:23:07.183Z,28.75
2019-02-16T16:26:00.137Z,34.40
2019-02-16T16:28:50.579Z,35.48
2019-02-16T16:31:39.845Z,33.73
2019-02-16T16:34:21.275Z,42.33
2019-02-16T16:37:09.826Z,28.70
2019-02-16T16:39:59.147Z,25.60
2019-02-16T16:42:55.604Z,31.57
2019-02-16T16:45:41.272Z,34.53
2019-02-16T16:48:39.577Z,31.17
2019-02-16T16:51:29.611Z,29.35
2019-02-16T16:54:10.509Z,27.45
2019-02-16T16:56:55.139Z,30.68
2019-02-16T16:59:50.649Z,33.67
2019-02-16T17:02:58.072Z,38.17
2019-02-16T17:05:47.384Z,32.70
2019-02-16T17:08:36.728Z,35.03
2019-02-16T17:11:38.005Z,30.17
2019-02-16T17:14:33.694Z,32.88
2019-02-16T17:17:23.043Z,28.87
2019-02-16T17:20:21.346Z,40.03
2019-02-16T17:23:16.609Z,34.88
2019-02-16T17:25:59.377Z,32.25
2019-02-16T17:28:49.368Z,41.92
2019-02-16T17:31:37.190Z,39.25
2019-02-16T17:34:29.125Z,38.40
2019-02-16T17:37:09.479Z,35.38
2019-02-16T17:39:49.363Z,34.98
2019-02-16T17:42:37.875Z,34.60
2019-02-16T17:45:32.062Z,37.88
2019-02-16T17:48:21.361Z,33.00
2019-02-16T17:51:00.621Z,34.13
2019-02-16T17:54:08.408Z,44.67
2019-02-16T17:56:51.753Z,37.63
2019-02-16T17:59:33.527Z,42.45
2019-02-16T18:02:15.761Z,40.35
2019-02-16T18:05:01.471Z,41.05
2019-02-16T18:07:49.607Z,39.45
2019-02-16T18:10:41.707Z,60.05
2019-02-16T18:13:34.077Z,47.60
2019-02-16T18:16:26.419Z,39.25
2019-02-16T18:19:18.989Z,37.70
2019-02-16T18:21:57.327Z,42.30
2019-02-16T18:24:49.707Z,40.40
2019-02-16T18:27:48.337Z,36.25
2019-02-16T18:30:58.447Z,39.63
2019-02-16T18:33:50.669Z,39.15
2019-02-16T18:36:46.218Z,44.60
2019-02-16T18:39:30.091Z,38.17
2019-02-16T18:42:31.393Z,32.63
2019-02-16T18:45:29.121Z,36.33
2019-02-16T18:48:07.428Z,34.90
2019-02-16T18:50:49.265Z,34.63
2019-02-16T18:53:33.657Z,34.18
2019-02-16T18:56:19.473Z,41.85
2019-02-16T18:59:07.383Z,33.88
2019-02-16T19:01:46.945Z,44.95
2019-02-16T19:04:33.911Z,52.50
2019-02-16T19:07:16.787Z,36.77
2019-02-16T19:10:05.611Z,34.15
2019-02-16T19:12:54.891Z,38.78
2019-02-16T19:15:42.801Z,30.88
2019-02-16T19:18:24.869Z,41.18
2019-02-16T19:21:04.198Z,39.63
2019-02-16T19:23:56.315Z,78.92
2019-02-16T19:26:49.029Z,41.77
2019-02-16T19:29:38.405Z,52.38
2019-02-16T19:32:22.303Z,41.73
2019-02-16T19:35:08.401Z,39.98
2019-02-16T19:38:03.817Z,43.50
2019-02-16T19:40:46.897Z,34.25
2019-02-16T19:43:28.046Z,37.42
2019-02-16T19:46:17.441Z,38.25
2019-02-16T19:49:13.721Z,39.00
2019-02-16T19:51:54.026Z,44.53
2019-02-16T19:54:45.437Z,44.90
2019-02-16T19:57:33.402Z,51.83
2019-02-16T20:00:23.555Z,39.75
2019-02-16T20:03:14.097Z,40.08
2019-02-16T20:06:15.023Z,40.55
2019-02-16T20:09:06.101Z,42.95
2019-02-16T20:11:54.435Z,43.85
2019-02-16T20:14:43.795Z,33.88
2019-02-16T20:17:28.537Z,38.65
2019-02-16T20:20:20.820Z,32.98
2019-02-16T20:23:10.014Z,31.75
2019-02-16T20:25:56.725Z,28.35
2019-02-16T20:28:44.823Z,33.45
2019-02-16T20:31:37.202Z,30.40
2019-02-16T20:34:17.268Z,32.35
2019-02-16T20:37:02.327Z,52.88
2019-02-16T20:39:42.733Z,37.75
2019-02-16T20:42:45.120Z,37.48
2019-02-16T20:45:37.453Z,30.17
2019-02-16T20:48:25.689Z,34.83
2019-02-16T20:51:18.085Z,29.23
2019-02-16T20:54:07.399Z,30.65
2019-02-16T20:56:49.989Z,32.88
2019-02-16T20:59:39.843Z,34.60
2019-02-16T21:02:32.173Z,29.02
2019-02-16T21:05:33.533Z,25.88
2019-02-16T21:08:21.531Z,35.05
2019-02-16T21:10:58.307Z,30.12
2019-02-16T21:13:50.385Z,38.30
2019-02-16T21:16:42.487Z,38.67
2019-02-16T21:19:38.099Z,32.85
2019-02-16T21:22:27.477Z,32.13
2019-02-16T21:25:09.813Z,26.97
2019-02-16T21:27:58.385Z,26.00
2019-02-16T21:30:42.151Z,29.98
2019-02-16T21:33:37.566Z,31.42
2019-02-16T21:36:30.249Z,36.08
2019-02-16T21:39:34.979Z,28.47
2019-02-16T21:42:36.485Z,33.63
2019-02-16T21:45:24.371Z,39.27
2019-02-16T21:48:12.356Z,26.02
2019-02-16T21:51:07.881Z,33.00
2019-02-16T21:53:46.704Z,32.05
2019-02-16T21:56:34.773Z,30.37
2019-02-16T21:59:19.314Z,35.85
2019-02-16T22:02:11.851Z,36.55
2019-02-16T22:05:04.183Z,29.18
2019-02-16T22:07:53.090Z,33.65
2019-02-16T22:10:40.375Z,29.00
2019-02-16T22:13:10.731Z,31.02
2019-02-16T22:15:41.109Z,35.95
2019-02-16T22:18:11.451Z,26.93
2019-02-16T22:20:41.857Z,32.48
2019-02-16T22:23:12.199Z,30.60
2019-02-16T22:25:42.969Z,42.58
2019-02-16T22:28:18.733Z,24.30
2019-02-16T22:30:45.677Z,27.25
2019-02-16T22:33:16.035Z,36.17
2019-02-16T22:35:46.381Z,36.30
2019-02-16T22:38:17.098Z,25.37
2019-02-16T22:40:47.474Z,28.23
2019-02-16T22:43:17.824Z,43.78
2019-02-16T22:45:48.265Z,29.35
2019-02-16T22:48:18.825Z,25.27
2019-02-16T22:50:55.261Z,21.12
2019-02-16T22:53:25.601Z,22.58
2019-02-16T22:55:56.559Z,26.02
2019-02-16T22:58:29.191Z,19.42
2019-02-16T23:00:58.948Z,21.12
2019-02-16T23:03:30.906Z,35.63
2019-02-16T23:06:01.264Z,24.05
2019-02-16T23:08:32.148Z,21.60
2019-02-16T23:11:02.919Z,24.55
2019-02-16T23:13:33.283Z,20.70
2019-02-16T23:16:03.860Z,21.48
2019-02-16T23:18:34.231Z,23.73
2019-02-16T23:21:04.745Z,20.88
2019-02-16T23:23:35.083Z,26.07
2019-02-16T23:26:05.492Z,23.75
2019-02-16T23:28:38.899Z,23.40
2019-02-16T23:31:07.870Z,26.42
2019-02-16T23:33:38.277Z,21.52
2019-02-16T23:36:08.613Z,32.13
2019-02-16T23:38:39.023Z,28.85
2019-02-16T23:41:09.354Z,31.42
2019-02-16T23:43:39.710Z,25.30
2019-02-16T23:46:10.100Z,26.93
2019-02-16T23:48:40.571Z,24.43
2019-02-16T23:51:10.993Z,26.27
2019-02-16T23:53:41.340Z,28.60
2019-02-16T23:56:11.682Z,24.60
2019-02-16T23:58:48.899Z,18.75
